Salmo, Canada
Current Conditions -  °F | °C
As of 4:35 AM on Monday 22 Dec 2014 (Local Time) from K65S Reporting Station
Broken Clouds Broken Clouds  
Wind Chill: 32°   Ceiling: 6000
Heat Index: 36°   Visibility: 10mi
Dew Point: 28°   Wind: 5mph
Humidity: 75%   Direction: 240°WSW
Pressure: 29.91"   Gusts: NA
Location:  49.2°N, 117.28°W
Report Text: K65S 221235Z AUTO 24004KT 10SM BKN060 BKN080 02/M02 A2991 RMK AO2
Loading
Personal Weather Stations






























Interactive Weather Map New forecast layout! Learn more

10-Day Weather Forecast

Advertisements
Track Severe Weather on mobile